sensor_id;sensor_type;location;lat;lon;timestamp;P1;durP1;ratioP1;P2;durP2;ratioP2
14768;SDS011;7476;49.404;11.152;2023-12-07T00:01:03;22.20;;;14.43;;
14768;SDS011;7476;49.404;11.152;2023-12-07T00:03:30;18.60;;;12.47;;
14768;SDS011;7476;49.404;11.152;2023-12-07T00:05:58;21.07;;;13.67;;
14768;SDS011;7476;49.404;11.152;2023-12-07T00:08:25;20.63;;;12.90;;
14768;SDS011;7476;49.404;11.152;2023-12-07T00:10:52;20.53;;;13.80;;
14768;SDS011;7476;49.404;11.152;2023-12-07T00:13:18;21.47;;;13.97;;
14768;SDS011;7476;49.404;11.152;2023-12-07T00:15:45;22.97;;;14.73;;
14768;SDS011;7476;49.404;11.152;2023-12-07T00:18:12;20.33;;;13.83;;
14768;SDS011;7476;49.404;11.152;2023-12-07T00:20:39;20.47;;;13.17;;
14768;SDS011;7476;49.404;11.152;2023-12-07T00:23:07;21.93;;;13.50;;
14768;SDS011;7476;49.404;11.152;2023-12-07T00:25:34;25.70;;;14.27;;
14768;SDS011;7476;49.404;11.152;2023-12-07T00:28:00;21.70;;;14.37;;
14768;SDS011;7476;49.404;11.152;2023-12-07T00:30:28;21.63;;;14.43;;
14768;SDS011;7476;49.404;11.152;2023-12-07T00:32:54;21.83;;;14.30;;
14768;SDS011;7476;49.404;11.152;2023-12-07T00:35:21;21.13;;;13.50;;
14768;SDS011;7476;49.404;11.152;2023-12-07T00:37:48;25.67;;;14.80;;
14768;SDS011;7476;49.404;11.152;2023-12-07T00:40:16;24.73;;;15.37;;
14768;SDS011;7476;49.404;11.152;2023-12-07T00:42:43;22.40;;;14.73;;
14768;SDS011;7476;49.404;11.152;2023-12-07T00:45:11;22.30;;;14.27;;
14768;SDS011;7476;49.404;11.152;2023-12-07T00:47:38;22.37;;;14.77;;
14768;SDS011;7476;49.404;11.152;2023-12-07T00:50:06;18.90;;;13.27;;
14768;SDS011;7476;49.404;11.152;2023-12-07T00:52:33;20.33;;;13.83;;
14768;SDS011;7476;49.404;11.152;2023-12-07T00:55:00;20.83;;;14.13;;
14768;SDS011;7476;49.404;11.152;2023-12-07T00:57:28;20.87;;;14.03;;
14768;SDS011;7476;49.404;11.152;2023-12-07T00:59:55;22.00;;;13.60;;
14768;SDS011;7476;49.404;11.152;2023-12-07T01:02:21;23.53;;;15.60;;
14768;SDS011;7476;49.404;11.152;2023-12-07T01:04:48;22.63;;;14.47;;
14768;SDS011;7476;49.404;11.152;2023-12-07T01:07:15;19.37;;;13.63;;
14768;SDS011;7476;49.404;11.152;2023-12-07T01:09:41;19.70;;;13.73;;
14768;SDS011;7476;49.404;11.152;2023-12-07T01:12:08;22.87;;;14.57;;
14768;SDS011;7476;49.404;11.152;2023-12-07T01:14:36;18.97;;;13.97;;
14768;SDS011;7476;49.404;11.152;2023-12-07T01:17:03;22.57;;;14.80;;
14768;SDS011;7476;49.404;11.152;2023-12-07T01:19:29;21.10;;;13.93;;
14768;SDS011;7476;49.404;11.152;2023-12-07T01:21:56;21.83;;;13.93;;
14768;SDS011;7476;49.404;11.152;2023-12-07T01:24:23;22.30;;;14.73;;
14768;SDS011;7476;49.404;11.152;2023-12-07T01:26:49;20.63;;;14.07;;
14768;SDS011;7476;49.404;11.152;2023-12-07T01:29:16;22.03;;;14.43;;
14768;SDS011;7476;49.404;11.152;2023-12-07T01:31:44;21.47;;;14.20;;
14768;SDS011;7476;49.404;11.152;2023-12-07T01:34:10;22.23;;;14.17;;
14768;SDS011;7476;49.404;11.152;2023-12-07T01:36:37;22.80;;;14.47;;
14768;SDS011;7476;49.404;11.152;2023-12-07T01:39:05;23.73;;;14.63;;
14768;SDS011;7476;49.404;11.152;2023-12-07T01:41:32;21.57;;;13.90;;
14768;SDS011;7476;49.404;11.152;2023-12-07T01:43:58;22.00;;;13.70;;
14768;SDS011;7476;49.404;11.152;2023-12-07T01:46:25;23.10;;;15.47;;
14768;SDS011;7476;49.404;11.152;2023-12-07T01:48:53;22.07;;;13.97;;
14768;SDS011;7476;49.404;11.152;2023-12-07T01:51:20;21.33;;;13.67;;
14768;SDS011;7476;49.404;11.152;2023-12-07T01:53:47;21.23;;;13.60;;
14768;SDS011;7476;49.404;11.152;2023-12-07T01:56:14;21.97;;;15.17;;
14768;SDS011;7476;49.404;11.152;2023-12-07T01:58:42;21.90;;;14.23;;
14768;SDS011;7476;49.404;11.152;2023-12-07T02:01:09;23.50;;;13.97;;
14768;SDS011;7476;49.404;11.152;2023-12-07T02:03:37;21.60;;;14.53;;
14768;SDS011;7476;49.404;11.152;2023-12-07T02:06:07;22.50;;;14.77;;
14768;SDS011;7476;49.404;11.152;2023-12-07T02:08:35;22.23;;;13.93;;
14768;SDS011;7476;49.404;11.152;2023-12-07T02:11:06;24.67;;;15.23;;
14768;SDS011;7476;49.404;11.152;2023-12-07T02:13:33;22.97;;;14.47;;
14768;SDS011;7476;49.404;11.152;2023-12-07T02:16:00;21.83;;;14.07;;
14768;SDS011;7476;49.404;11.152;2023-12-07T02:18:32;23.77;;;14.57;;
14768;SDS011;7476;49.404;11.152;2023-12-07T02:21:06;21.33;;;14.13;;
14768;SDS011;7476;49.404;11.152;2023-12-07T02:23:42;21.63;;;13.53;;
14768;SDS011;7476;49.404;11.152;2023-12-07T02:26:09;20.87;;;14.00;;
14768;SDS011;7476;49.404;11.152;2023-12-07T02:28:38;21.37;;;14.53;;
14768;SDS011;7476;49.404;11.152;2023-12-07T02:31:05;21.53;;;14.17;;
14768;SDS011;7476;49.404;11.152;2023-12-07T02:33:32;22.93;;;14.60;;
14768;SDS011;7476;49.404;11.152;2023-12-07T02:35:59;25.47;;;15.63;;
14768;SDS011;7476;49.404;11.152;2023-12-07T02:38:25;24.33;;;15.77;;
14768;SDS011;7476;49.404;11.152;2023-12-07T02:40:54;23.63;;;15.03;;
14768;SDS011;7476;49.404;11.152;2023-12-07T02:43:22;22.10;;;14.57;;
14768;SDS011;7476;49.404;11.152;2023-12-07T02:45:51;22.27;;;14.80;;
14768;SDS011;7476;49.404;11.152;2023-12-07T02:48:17;24.30;;;15.03;;
14768;SDS011;7476;49.404;11.152;2023-12-07T02:50:46;21.67;;;14.30;;
14768;SDS011;7476;49.404;11.152;2023-12-07T02:53:13;22.00;;;14.17;;
14768;SDS011;7476;49.404;11.152;2023-12-07T02:55:39;21.87;;;14.00;;
14768;SDS011;7476;49.404;11.152;2023-12-07T02:58:06;18.87;;;12.77;;
14768;SDS011;7476;49.404;11.152;2023-12-07T03:00:33;23.20;;;14.73;;
14768;SDS011;7476;49.404;11.152;2023-12-07T03:03:01;24.30;;;14.63;;
14768;SDS011;7476;49.404;11.152;2023-12-07T03:05:27;23.23;;;15.17;;
14768;SDS011;7476;49.404;11.152;2023-12-07T03:07:54;19.87;;;13.90;;
14768;SDS011;7476;49.404;11.152;2023-12-07T03:10:21;23.23;;;14.67;;
14768;SDS011;7476;49.404;11.152;2023-12-07T03:12:47;22.50;;;14.40;;
14768;SDS011;7476;49.404;11.152;2023-12-07T03:15:14;20.50;;;13.83;;
14768;SDS011;7476;49.404;11.152;2023-12-07T03:17:41;19.57;;;13.57;;
14768;SDS011;7476;49.404;11.152;2023-12-07T03:20:10;22.80;;;14.50;;
14768;SDS011;7476;49.404;11.152;2023-12-07T03:22:37;21.27;;;13.73;;
14768;SDS011;7476;49.404;11.152;2023-12-07T03:25:04;20.70;;;12.97;;
14768;SDS011;7476;49.404;11.152;2023-12-07T03:27:31;21.03;;;13.73;;
14768;SDS011;7476;49.404;11.152;2023-12-07T03:29:57;22.90;;;15.43;;
14768;SDS011;7476;49.404;11.152;2023-12-07T03:32:24;21.23;;;15.00;;
14768;SDS011;7476;49.404;11.152;2023-12-07T03:34:51;22.93;;;15.23;;
14768;SDS011;7476;49.404;11.152;2023-12-07T03:37:19;23.13;;;15.70;;
14768;SDS011;7476;49.404;11.152;2023-12-07T03:39:45;25.60;;;16.83;;
14768;SDS011;7476;49.404;11.152;2023-12-07T03:42:12;23.90;;;15.57;;
14768;SDS011;7476;49.404;11.152;2023-12-07T03:44:39;24.37;;;15.17;;
14768;SDS011;7476;49.404;11.152;2023-12-07T03:47:05;24.13;;;16.03;;
14768;SDS011;7476;49.404;11.152;2023-12-07T03:49:32;24.47;;;14.97;;
14768;SDS011;7476;49.404;11.152;2023-12-07T03:51:58;24.33;;;16.00;;
14768;SDS011;7476;49.404;11.152;2023-12-07T03:54:26;23.67;;;15.03;;
14768;SDS011;7476;49.404;11.152;2023-12-07T03:56:53;24.30;;;15.03;;
14768;SDS011;7476;49.404;11.152;2023-12-07T03:59:20;24.67;;;14.93;;
14768;SDS011;7476;49.404;11.152;2023-12-07T04:01:46;21.53;;;14.00;;
14768;SDS011;7476;49.404;11.152;2023-12-07T04:04:13;23.97;;;14.53;;
14768;SDS011;7476;49.404;11.152;2023-12-07T04:06:40;20.00;;;13.67;;
14768;SDS011;7476;49.404;11.152;2023-12-07T04:09:06;20.13;;;13.63;;
14768;SDS011;7476;49.404;11.152;2023-12-07T04:11:34;22.30;;;14.37;;
14768;SDS011;7476;49.404;11.152;2023-12-07T04:14:01;21.03;;;14.03;;
14768;SDS011;7476;49.404;11.152;2023-12-07T04:16:28;22.80;;;13.57;;
14768;SDS011;7476;49.404;11.152;2023-12-07T04:18:54;19.53;;;12.27;;
14768;SDS011;7476;49.404;11.152;2023-12-07T04:21:21;18.30;;;12.63;;
14768;SDS011;7476;49.404;11.152;2023-12-07T04:23:48;20.73;;;12.97;;
14768;SDS011;7476;49.404;11.152;2023-12-07T04:26:14;18.97;;;11.90;;
14768;SDS011;7476;49.404;11.152;2023-12-07T04:28:42;20.27;;;12.47;;
14768;SDS011;7476;49.404;11.152;2023-12-07T04:31:09;19.60;;;13.07;;
14768;SDS011;7476;49.404;11.152;2023-12-07T04:33:36;18.60;;;12.07;;
14768;SDS011;7476;49.404;11.152;2023-12-07T04:36:02;21.03;;;13.17;;
14768;SDS011;7476;49.404;11.152;2023-12-07T04:38:30;20.17;;;13.10;;
14768;SDS011;7476;49.404;11.152;2023-12-07T04:40:57;20.50;;;13.13;;
14768;SDS011;7476;49.404;11.152;2023-12-07T04:43:24;19.80;;;12.93;;
14768;SDS011;7476;49.404;11.152;2023-12-07T04:45:52;22.50;;;14.13;;
14768;SDS011;7476;49.404;11.152;2023-12-07T04:48:18;21.60;;;13.53;;
14768;SDS011;7476;49.404;11.152;2023-12-07T04:50:45;22.30;;;13.77;;
14768;SDS011;7476;49.404;11.152;2023-12-07T04:53:15;24.77;;;15.17;;
14768;SDS011;7476;49.404;11.152;2023-12-07T04:55:45;25.97;;;14.83;;
14768;SDS011;7476;49.404;11.152;2023-12-07T04:58:15;22.53;;;14.00;;
14768;SDS011;7476;49.404;11.152;2023-12-07T05:00:41;23.27;;;14.13;;
14768;SDS011;7476;49.404;11.152;2023-12-07T05:03:09;21.13;;;14.00;;
14768;SDS011;7476;49.404;11.152;2023-12-07T05:05:36;21.07;;;13.17;;
14768;SDS011;7476;49.404;11.152;2023-12-07T05:08:03;21.30;;;13.80;;
14768;SDS011;7476;49.404;11.152;2023-12-07T05:10:30;21.73;;;13.60;;
14768;SDS011;7476;49.404;11.152;2023-12-07T05:12:56;24.70;;;14.93;;
14768;SDS011;7476;49.404;11.152;2023-12-07T05:15:23;25.10;;;14.60;;
14768;SDS011;7476;49.404;11.152;2023-12-07T05:17:50;22.87;;;14.33;;
14768;SDS011;7476;49.404;11.152;2023-12-07T05:20:18;21.87;;;14.37;;
14768;SDS011;7476;49.404;11.152;2023-12-07T05:22:47;20.60;;;13.93;;
14768;SDS011;7476;49.404;11.152;2023-12-07T05:25:14;23.20;;;14.00;;
14768;SDS011;7476;49.404;11.152;2023-12-07T05:27:40;23.33;;;14.53;;
14768;SDS011;7476;49.404;11.152;2023-12-07T05:30:07;23.03;;;13.63;;
14768;SDS011;7476;49.404;11.152;2023-12-07T05:32:35;21.10;;;13.77;;
14768;SDS011;7476;49.404;11.152;2023-12-07T05:35:02;23.37;;;14.77;;
14768;SDS011;7476;49.404;11.152;2023-12-07T05:37:32;20.70;;;12.90;;
14768;SDS011;7476;49.404;11.152;2023-12-07T05:39:58;23.17;;;14.10;;
14768;SDS011;7476;49.404;11.152;2023-12-07T05:42:26;23.70;;;14.37;;
14768;SDS011;7476;49.404;11.152;2023-12-07T05:44:52;25.03;;;14.40;;
14768;SDS011;7476;49.404;11.152;2023-12-07T05:47:20;21.87;;;13.47;;
14768;SDS011;7476;49.404;11.152;2023-12-07T05:49:48;23.57;;;14.17;;
14768;SDS011;7476;49.404;11.152;2023-12-07T05:52:15;23.27;;;13.83;;
14768;SDS011;7476;49.404;11.152;2023-12-07T05:54:43;25.40;;;14.47;;
14768;SDS011;7476;49.404;11.152;2023-12-07T05:57:11;24.33;;;14.50;;
14768;SDS011;7476;49.404;11.152;2023-12-07T05:59:38;23.53;;;13.47;;
14768;SDS011;7476;49.404;11.152;2023-12-07T06:02:06;24.53;;;14.53;;
14768;SDS011;7476;49.404;11.152;2023-12-07T06:04:33;26.27;;;16.43;;
14768;SDS011;7476;49.404;11.152;2023-12-07T06:07:00;22.50;;;14.50;;
14768;SDS011;7476;49.404;11.152;2023-12-07T06:09:27;24.30;;;14.90;;
14768;SDS011;7476;49.404;11.152;2023-12-07T06:11:55;28.20;;;15.60;;
14768;SDS011;7476;49.404;11.152;2023-12-07T06:14:22;24.57;;;15.67;;
14768;SDS011;7476;49.404;11.152;2023-12-07T06:16:49;26.67;;;15.47;;
14768;SDS011;7476;49.404;11.152;2023-12-07T06:19:15;26.73;;;15.90;;
14768;SDS011;7476;49.404;11.152;2023-12-07T06:21:42;25.73;;;15.60;;
14768;SDS011;7476;49.404;11.152;2023-12-07T06:24:09;24.93;;;15.43;;
14768;SDS011;7476;49.404;11.152;2023-12-07T06:26:36;25.27;;;16.27;;
14768;SDS011;7476;49.404;11.152;2023-12-07T06:29:04;26.30;;;14.93;;
14768;SDS011;7476;49.404;11.152;2023-12-07T06:31:32;29.90;;;17.13;;
14768;SDS011;7476;49.404;11.152;2023-12-07T06:33:59;23.67;;;15.13;;
14768;SDS011;7476;49.404;11.152;2023-12-07T06:36:26;24.10;;;14.80;;
14768;SDS011;7476;49.404;11.152;2023-12-07T06:38:53;22.60;;;14.70;;
14768;SDS011;7476;49.404;11.152;2023-12-07T06:41:20;26.93;;;15.93;;
14768;SDS011;7476;49.404;11.152;2023-12-07T06:43:47;26.30;;;16.07;;
14768;SDS011;7476;49.404;11.152;2023-12-07T06:46:15;28.93;;;17.60;;
14768;SDS011;7476;49.404;11.152;2023-12-07T06:48:42;27.43;;;16.27;;
14768;SDS011;7476;49.404;11.152;2023-12-07T06:51:12;27.90;;;16.47;;
14768;SDS011;7476;49.404;11.152;2023-12-07T06:53:39;32.20;;;19.20;;
14768;SDS011;7476;49.404;11.152;2023-12-07T06:56:06;31.23;;;17.33;;
14768;SDS011;7476;49.404;11.152;2023-12-07T06:58:33;31.90;;;17.57;;
14768;SDS011;7476;49.404;11.152;2023-12-07T07:01:00;29.27;;;17.00;;
14768;SDS011;7476;49.404;11.152;2023-12-07T07:03:28;36.13;;;19.03;;
14768;SDS011;7476;49.404;11.152;2023-12-07T07:05:55;37.20;;;19.13;;
14768;SDS011;7476;49.404;11.152;2023-12-07T07:08:21;38.57;;;20.63;;
14768;SDS011;7476;49.404;11.152;2023-12-07T07:10:48;46.83;;;22.07;;
14768;SDS011;7476;49.404;11.152;2023-12-07T07:13:15;38.10;;;20.30;;
14768;SDS011;7476;49.404;11.152;2023-12-07T07:15:44;29.17;;;18.23;;
14768;SDS011;7476;49.404;11.152;2023-12-07T07:18:12;31.90;;;18.37;;
14768;SDS011;7476;49.404;11.152;2023-12-07T07:20:41;32.93;;;19.33;;
14768;SDS011;7476;49.404;11.152;2023-12-07T07:23:07;32.03;;;18.03;;
14768;SDS011;7476;49.404;11.152;2023-12-07T07:25:34;34.30;;;18.10;;
14768;SDS011;7476;49.404;11.152;2023-12-07T07:28:01;27.03;;;18.03;;
14768;SDS011;7476;49.404;11.152;2023-12-07T07:30:28;26.80;;;17.63;;
14768;SDS011;7476;49.404;11.152;2023-12-07T07:32:55;33.47;;;19.80;;
14768;SDS011;7476;49.404;11.152;2023-12-07T07:35:21;30.53;;;18.43;;
14768;SDS011;7476;49.404;11.152;2023-12-07T07:37:49;39.90;;;21.70;;
14768;SDS011;7476;49.404;11.152;2023-12-07T07:40:16;37.53;;;19.70;;
14768;SDS011;7476;49.404;11.152;2023-12-07T07:42:42;37.77;;;21.03;;
14768;SDS011;7476;49.404;11.152;2023-12-07T07:45:09;36.40;;;20.87;;
14768;SDS011;7476;49.404;11.152;2023-12-07T07:47:36;36.80;;;21.13;;
14768;SDS011;7476;49.404;11.152;2023-12-07T07:50:03;34.23;;;20.10;;
14768;SDS011;7476;49.404;11.152;2023-12-07T07:52:31;30.60;;;18.83;;
14768;SDS011;7476;49.404;11.152;2023-12-07T07:55:00;31.83;;;20.00;;
14768;SDS011;7476;49.404;11.152;2023-12-07T07:57:27;37.10;;;21.60;;
14768;SDS011;7476;49.404;11.152;2023-12-07T07:59:55;34.27;;;21.47;;
14768;SDS011;7476;49.404;11.152;2023-12-07T08:02:22;35.57;;;20.33;;
14768;SDS011;7476;49.404;11.152;2023-12-07T08:04:48;37.00;;;20.40;;
14768;SDS011;7476;49.404;11.152;2023-12-07T08:07:16;37.30;;;20.97;;
14768;SDS011;7476;49.404;11.152;2023-12-07T08:09:43;36.07;;;20.57;;
14768;SDS011;7476;49.404;11.152;2023-12-07T08:12:11;38.07;;;22.30;;
14768;SDS011;7476;49.404;11.152;2023-12-07T08:14:38;43.57;;;23.73;;
14768;SDS011;7476;49.404;11.152;2023-12-07T08:17:04;47.60;;;25.90;;
14768;SDS011;7476;49.404;11.152;2023-12-07T08:19:31;43.17;;;23.53;;
14768;SDS011;7476;49.404;11.152;2023-12-07T08:21:58;37.87;;;22.13;;
14768;SDS011;7476;49.404;11.152;2023-12-07T08:24:24;38.83;;;22.47;;
14768;SDS011;7476;49.404;11.152;2023-12-07T08:26:51;41.47;;;23.80;;
14768;SDS011;7476;49.404;11.152;2023-12-07T08:29:19;39.40;;;21.53;;
14768;SDS011;7476;49.404;11.152;2023-12-07T08:31:46;39.77;;;23.00;;
14768;SDS011;7476;49.404;11.152;2023-12-07T08:34:13;38.47;;;21.77;;
14768;SDS011;7476;49.404;11.152;2023-12-07T08:36:40;34.67;;;21.07;;
14768;SDS011;7476;49.404;11.152;2023-12-07T08:39:06;31.47;;;19.67;;
14768;SDS011;7476;49.404;11.152;2023-12-07T08:41:34;32.53;;;20.77;;
14768;SDS011;7476;49.404;11.152;2023-12-07T08:44:01;34.03;;;22.03;;
14768;SDS011;7476;49.404;11.152;2023-12-07T08:46:29;31.83;;;19.93;;
14768;SDS011;7476;49.404;11.152;2023-12-07T08:48:56;34.57;;;21.73;;
14768;SDS011;7476;49.404;11.152;2023-12-07T08:51:22;34.60;;;21.57;;
14768;SDS011;7476;49.404;11.152;2023-12-07T08:53:50;34.73;;;21.73;;
14768;SDS011;7476;49.404;11.152;2023-12-07T08:56:17;36.93;;;21.83;;
14768;SDS011;7476;49.404;11.152;2023-12-07T08:58:44;36.37;;;21.27;;
14768;SDS011;7476;49.404;11.152;2023-12-07T09:01:10;34.67;;;21.23;;
14768;SDS011;7476;49.404;11.152;2023-12-07T09:03:38;35.13;;;21.80;;
14768;SDS011;7476;49.404;11.152;2023-12-07T09:06:06;40.83;;;22.93;;
14768;SDS011;7476;49.404;11.152;2023-12-07T09:08:34;31.93;;;20.93;;
14768;SDS011;7476;49.404;11.152;2023-12-07T09:11:00;36.67;;;22.03;;
14768;SDS011;7476;49.404;11.152;2023-12-07T09:13:28;38.50;;;22.80;;
14768;SDS011;7476;49.404;11.152;2023-12-07T09:15:55;33.57;;;21.17;;
14768;SDS011;7476;49.404;11.152;2023-12-07T09:18:22;34.70;;;20.70;;
14768;SDS011;7476;49.404;11.152;2023-12-07T09:20:51;35.27;;;20.27;;
14768;SDS011;7476;49.404;11.152;2023-12-07T09:23:17;32.40;;;20.60;;
14768;SDS011;7476;49.404;11.152;2023-12-07T09:25:45;32.23;;;20.23;;
14768;SDS011;7476;49.404;11.152;2023-12-07T09:28:12;33.90;;;21.60;;
14768;SDS011;7476;49.404;11.152;2023-12-07T09:30:39;36.10;;;20.77;;
14768;SDS011;7476;49.404;11.152;2023-12-07T09:33:05;34.77;;;21.67;;
14768;SDS011;7476;49.404;11.152;2023-12-07T09:35:32;34.47;;;21.40;;
14768;SDS011;7476;49.404;11.152;2023-12-07T09:38:00;33.57;;;20.90;;
14768;SDS011;7476;49.404;11.152;2023-12-07T09:40:27;33.80;;;21.53;;
14768;SDS011;7476;49.404;11.152;2023-12-07T09:42:54;36.60;;;21.57;;
14768;SDS011;7476;49.404;11.152;2023-12-07T09:45:21;32.60;;;20.33;;
14768;SDS011;7476;49.404;11.152;2023-12-07T09:47:48;34.90;;;22.27;;
14768;SDS011;7476;49.404;11.152;2023-12-07T09:50:16;34.07;;;21.13;;
14768;SDS011;7476;49.404;11.152;2023-12-07T09:52:47;32.87;;;21.37;;
14768;SDS011;7476;49.404;11.152;2023-12-07T09:55:16;33.13;;;20.40;;
14768;SDS011;7476;49.404;11.152;2023-12-07T09:57:43;31.20;;;20.43;;
14768;SDS011;7476;49.404;11.152;2023-12-07T10:00:10;31.60;;;21.43;;
14768;SDS011;7476;49.404;11.152;2023-12-07T10:02:39;34.30;;;21.70;;
14768;SDS011;7476;49.404;11.152;2023-12-07T10:05:08;30.23;;;20.43;;
14768;SDS011;7476;49.404;11.152;2023-12-07T10:07:36;35.97;;;21.73;;
14768;SDS011;7476;49.404;11.152;2023-12-07T10:10:05;31.57;;;20.37;;
14768;SDS011;7476;49.404;11.152;2023-12-07T10:12:34;34.40;;;20.93;;
14768;SDS011;7476;49.404;11.152;2023-12-07T10:15:02;34.27;;;21.87;;
14768;SDS011;7476;49.404;11.152;2023-12-07T10:17:48;31.13;;;20.20;;
14768;SDS011;7476;49.404;11.152;2023-12-07T10:20:16;27.67;;;19.20;;
14768;SDS011;7476;49.404;11.152;2023-12-07T10:22:43;33.23;;;21.57;;
14768;SDS011;7476;49.404;11.152;2023-12-07T10:25:10;34.87;;;20.97;;
14768;SDS011;7476;49.404;11.152;2023-12-07T10:27:40;30.00;;;21.07;;
14768;SDS011;7476;49.404;11.152;2023-12-07T10:30:08;33.57;;;21.43;;
14768;SDS011;7476;49.404;11.152;2023-12-07T10:32:37;31.30;;;21.13;;
14768;SDS011;7476;49.404;11.152;2023-12-07T10:35:06;31.33;;;19.73;;
14768;SDS011;7476;49.404;11.152;2023-12-07T10:37:34;31.23;;;20.20;;
14768;SDS011;7476;49.404;11.152;2023-12-07T10:40:01;34.90;;;21.53;;
14768;SDS011;7476;49.404;11.152;2023-12-07T10:42:31;33.40;;;22.33;;
14768;SDS011;7476;49.404;11.152;2023-12-07T10:45:03;36.63;;;22.77;;
14768;SDS011;7476;49.404;11.152;2023-12-07T10:47:32;31.80;;;21.77;;
14768;SDS011;7476;49.404;11.152;2023-12-07T10:50:02;33.57;;;23.17;;
14768;SDS011;7476;49.404;11.152;2023-12-07T10:52:32;29.67;;;20.43;;
14768;SDS011;7476;49.404;11.152;2023-12-07T10:55:02;28.50;;;21.53;;
14768;SDS011;7476;49.404;11.152;2023-12-07T10:57:33;26.40;;;19.47;;
14768;SDS011;7476;49.404;11.152;2023-12-07T11:00:00;24.83;;;18.10;;
14768;SDS011;7476;49.404;11.152;2023-12-07T11:02:29;22.20;;;16.50;;
14768;SDS011;7476;49.404;11.152;2023-12-07T11:04:58;22.00;;;15.90;;
14768;SDS011;7476;49.404;11.152;2023-12-07T11:07:27;19.83;;;15.90;;
14768;SDS011;7476;49.404;11.152;2023-12-07T11:10:03;20.57;;;14.77;;
14768;SDS011;7476;49.404;11.152;2023-12-07T11:12:38;19.20;;;14.10;;
14768;SDS011;7476;49.404;11.152;2023-12-07T11:15:12;18.73;;;13.33;;
14768;SDS011;7476;49.404;11.152;2023-12-07T11:17:52;18.97;;;14.53;;
14768;SDS011;7476;49.404;11.152;2023-12-07T11:20:20;15.90;;;11.90;;
14768;SDS011;7476;49.404;11.152;2023-12-07T11:22:47;17.63;;;13.47;;
14768;SDS011;7476;49.404;11.152;2023-12-07T11:25:15;17.63;;;12.43;;
14768;SDS011;7476;49.404;11.152;2023-12-07T11:27:44;16.27;;;12.77;;
14768;SDS011;7476;49.404;11.152;2023-12-07T11:30:14;17.13;;;12.33;;
14768;SDS011;7476;49.404;11.152;2023-12-07T11:32:42;17.47;;;12.57;;
14768;SDS011;7476;49.404;11.152;2023-12-07T11:35:13;16.03;;;12.00;;
14768;SDS011;7476;49.404;11.152;2023-12-07T11:38:00;16.50;;;11.40;;
14768;SDS011;7476;49.404;11.152;2023-12-07T11:40:31;14.93;;;12.40;;
14768;SDS011;7476;49.404;11.152;2023-12-07T11:43:00;13.97;;;10.03;;
14768;SDS011;7476;49.404;11.152;2023-12-07T11:45:37;15.83;;;10.27;;
14768;SDS011;7476;49.404;11.152;2023-12-07T11:48:05;15.97;;;11.10;;
14768;SDS011;7476;49.404;11.152;2023-12-07T11:50:35;15.23;;;10.20;;
14768;SDS011;7476;49.404;11.152;2023-12-07T11:53:02;14.07;;;11.00;;
14768;SDS011;7476;49.404;11.152;2023-12-07T11:55:31;16.37;;;11.90;;
14768;SDS011;7476;49.404;11.152;2023-12-07T11:57:58;15.70;;;10.07;;
14768;SDS011;7476;49.404;11.152;2023-12-07T12:00:25;14.47;;;9.83;;
14768;SDS011;7476;49.404;11.152;2023-12-07T12:02:53;11.80;;;9.57;;
14768;SDS011;7476;49.404;11.152;2023-12-07T12:05:23;11.73;;;9.27;;
14768;SDS011;7476;49.404;11.152;2023-12-07T12:07:49;9.83;;;7.63;;
14768;SDS011;7476;49.404;11.152;2023-12-07T12:10:16;14.50;;;9.30;;
14768;SDS011;7476;49.404;11.152;2023-12-07T12:12:44;12.97;;;8.43;;
14768;SDS011;7476;49.404;11.152;2023-12-07T12:15:11;10.77;;;7.80;;
14768;SDS011;7476;49.404;11.152;2023-12-07T12:17:37;10.37;;;7.13;;
14768;SDS011;7476;49.404;11.152;2023-12-07T12:20:06;8.00;;;6.47;;
14768;SDS011;7476;49.404;11.152;2023-12-07T12:22:36;8.93;;;6.83;;
14768;SDS011;7476;49.404;11.152;2023-12-07T12:25:03;10.73;;;7.50;;
14768;SDS011;7476;49.404;11.152;2023-12-07T12:27:31;9.93;;;7.20;;
14768;SDS011;7476;49.404;11.152;2023-12-07T12:29:58;11.00;;;7.43;;
14768;SDS011;7476;49.404;11.152;2023-12-07T12:32:26;11.40;;;8.17;;
14768;SDS011;7476;49.404;11.152;2023-12-07T12:34:53;11.07;;;7.70;;
14768;SDS011;7476;49.404;11.152;2023-12-07T12:37:21;15.50;;;9.10;;
14768;SDS011;7476;49.404;11.152;2023-12-07T12:39:48;12.43;;;7.73;;
14768;SDS011;7476;49.404;11.152;2023-12-07T12:42:14;9.33;;;7.07;;
14768;SDS011;7476;49.404;11.152;2023-12-07T12:44:42;7.80;;;6.47;;
14768;SDS011;7476;49.404;11.152;2023-12-07T12:47:08;8.87;;;6.80;;
14768;SDS011;7476;49.404;11.152;2023-12-07T12:49:36;7.87;;;6.37;;
14768;SDS011;7476;49.404;11.152;2023-12-07T12:52:04;9.17;;;6.30;;
14768;SDS011;7476;49.404;11.152;2023-12-07T12:54:36;6.93;;;5.90;;
14768;SDS011;7476;49.404;11.152;2023-12-07T12:57:05;8.60;;;6.07;;
14768;SDS011;7476;49.404;11.152;2023-12-07T12:59:32;9.87;;;7.40;;
14768;SDS011;7476;49.404;11.152;2023-12-07T13:01:59;9.07;;;6.33;;
14768;SDS011;7476;49.404;11.152;2023-12-07T13:04:25;7.63;;;6.40;;
14768;SDS011;7476;49.404;11.152;2023-12-07T13:06:52;7.53;;;6.10;;
14768;SDS011;7476;49.404;11.152;2023-12-07T13:09:19;8.93;;;6.67;;
14768;SDS011;7476;49.404;11.152;2023-12-07T13:11:48;7.73;;;5.53;;
14768;SDS011;7476;49.404;11.152;2023-12-07T13:14:15;7.53;;;6.10;;
14768;SDS011;7476;49.404;11.152;2023-12-07T13:16:42;6.23;;;5.60;;
14768;SDS011;7476;49.404;11.152;2023-12-07T13:19:09;7.50;;;6.00;;
14768;SDS011;7476;49.404;11.152;2023-12-07T13:21:35;8.40;;;6.37;;
14768;SDS011;7476;49.404;11.152;2023-12-07T13:24:02;7.30;;;6.30;;
14768;SDS011;7476;49.404;11.152;2023-12-07T13:26:30;8.60;;;6.80;;
14768;SDS011;7476;49.404;11.152;2023-12-07T13:28:58;7.30;;;6.50;;
14768;SDS011;7476;49.404;11.152;2023-12-07T13:31:24;7.43;;;5.93;;
14768;SDS011;7476;49.404;11.152;2023-12-07T13:33:51;7.47;;;6.53;;
14768;SDS011;7476;49.404;11.152;2023-12-07T13:36:18;9.03;;;6.30;;
14768;SDS011;7476;49.404;11.152;2023-12-07T13:38:46;7.77;;;6.60;;
14768;SDS011;7476;49.404;11.152;2023-12-07T13:41:13;7.23;;;6.23;;
14768;SDS011;7476;49.404;11.152;2023-12-07T13:43:39;7.43;;;6.60;;
14768;SDS011;7476;49.404;11.152;2023-12-07T13:46:08;8.00;;;5.80;;
14768;SDS011;7476;49.404;11.152;2023-12-07T13:48:35;6.50;;;5.80;;
14768;SDS011;7476;49.404;11.152;2023-12-07T13:51:02;6.53;;;5.90;;
14768;SDS011;7476;49.404;11.152;2023-12-07T13:53:29;7.03;;;5.90;;
14768;SDS011;7476;49.404;11.152;2023-12-07T13:55:56;7.20;;;6.03;;
14768;SDS011;7476;49.404;11.152;2023-12-07T13:58:23;7.73;;;5.80;;
14768;SDS011;7476;49.404;11.152;2023-12-07T14:00:49;8.27;;;6.43;;
14768;SDS011;7476;49.404;11.152;2023-12-07T14:03:17;10.93;;;6.57;;
14768;SDS011;7476;49.404;11.152;2023-12-07T14:05:44;7.63;;;6.13;;
14768;SDS011;7476;49.404;11.152;2023-12-07T14:08:11;8.23;;;6.47;;
14768;SDS011;7476;49.404;11.152;2023-12-07T14:10:38;8.53;;;6.13;;
14768;SDS011;7476;49.404;11.152;2023-12-07T14:13:04;7.60;;;6.53;;
14768;SDS011;7476;49.404;11.152;2023-12-07T14:15:31;8.50;;;6.47;;
14768;SDS011;7476;49.404;11.152;2023-12-07T14:18:00;10.27;;;6.83;;
14768;SDS011;7476;49.404;11.152;2023-12-07T14:20:28;10.20;;;7.00;;
14768;SDS011;7476;49.404;11.152;2023-12-07T14:22:56;8.70;;;7.40;;
14768;SDS011;7476;49.404;11.152;2023-12-07T14:25:22;9.00;;;7.70;;
14768;SDS011;7476;49.404;11.152;2023-12-07T14:27:49;9.33;;;7.23;;